Terminal Aerodrome Forecast
Issued by NWS

Home | Current Version | Previous Version | Text Only | Print | Product List | Glossary Off
Versions: 1 2 3 4 5 6 7 8 9 10 11 12 13 14 15 16 17 18 19 20 21 22 23 24 25 26 27 28 29 30 31 32 33

000
FTUS43 KLOT 121700
TAFDPA
TAF
KDPA 121739Z 1218/1318 01012KT P6SM SCT030 OVC060
     FM122145 35009KT 5SM -RA BR SCT013 BKN025
     FM130000 34009KT 3SM -RA BR BKN013 OVC020
     FM130330 33010KT 6SM BR BKN018 OVC030
     FM130800 33010KT P6SM BKN040
     FM131000 32008KT P6SM SCT200=

USA.gov is the U.S. government's official web portal to all federal, state and local government web resources and services.